createdAt,value
2023-04-16T00:00:18.646Z,100294.13
2023-04-16T00:01:41.593Z,100296.75
2023-04-16T00:02:44.937Z,100293.61
2023-04-16T00:03:48.340Z,100296.21
2023-04-16T00:04:51.584Z,100292.48
2023-04-16T00:05:56.040Z,100296.69
2023-04-16T00:06:58.988Z,100296.84
2023-04-16T00:08:02.315Z,100298.55
2023-04-16T00:09:05.224Z,100293.05
2023-04-16T00:10:08.493Z,100293.97
2023-04-16T00:11:11.989Z,100297.89
2023-04-16T00:12:14.992Z,100294.00
2023-04-16T00:13:17.870Z,100296.54
2023-04-16T00:14:21.375Z,100295.52
2023-04-16T00:15:24.229Z,100295.45
2023-04-16T00:16:27.963Z,100296.21
2023-04-16T00:17:31.429Z,100294.80
2023-04-16T00:18:34.323Z,100295.11
2023-04-16T00:19:37.296Z,100292.52
2023-04-16T00:20:40.591Z,100292.98
2023-04-16T00:21:43.537Z,100286.02
2023-04-16T00:22:46.921Z,100287.19
2023-04-16T00:23:49.851Z,100292.14
2023-04-16T00:24:52.694Z,100289.70
2023-04-16T00:25:57.319Z,100290.84
2023-04-16T00:27:00.272Z,100287.84
2023-04-16T00:28:03.207Z,100289.19
2023-04-16T00:29:06.097Z,100292.48
2023-04-16T00:30:09.579Z,100288.35
2023-04-16T00:31:12.995Z,100288.06
2023-04-16T00:32:16.440Z,100292.12
2023-04-16T00:33:19.920Z,100284.36
2023-04-16T00:34:22.854Z,100290.45
2023-04-16T00:35:25.814Z,100288.26
2023-04-16T00:36:29.277Z,100291.42
2023-04-16T00:37:32.543Z,100285.52
2023-04-16T00:38:35.543Z,100287.52
2023-04-16T00:39:39.031Z,100293.89
2023-04-16T00:40:41.875Z,100287.40
2023-04-16T00:41:44.795Z,100293.02
2023-04-16T00:42:47.842Z,100291.40
2023-04-16T00:43:51.737Z,100293.63
2023-04-16T00:44:54.672Z,100300.44
2023-04-16T00:45:57.948Z,100291.38
2023-04-16T00:47:01.895Z,100292.91
2023-04-16T00:48:06.012Z,100299.92
2023-04-16T00:49:10.170Z,100294.27
2023-04-16T00:50:13.295Z,100296.98
2023-04-16T00:51:16.914Z,100304.37
2023-04-16T00:52:20.756Z,100297.21
2023-04-16T00:53:24.054Z,100304.23
2023-04-16T00:54:26.948Z,100297.98
2023-04-16T00:55:30.029Z,100302.30
2023-04-16T00:56:33.583Z,100300.52
2023-04-16T00:57:36.488Z,100299.52
2023-04-16T00:58:40.258Z,100300.60
2023-04-16T00:59:43.356Z,100302.33
2023-04-16T01:00:46.215Z,100300.51
2023-04-16T01:01:49.629Z,100302.49
2023-04-16T01:02:54.362Z,100298.73
2023-04-16T01:03:57.542Z,100298.02
2023-04-16T01:05:02.381Z,100305.33
2023-04-16T01:06:06.690Z,100298.35
2023-04-16T01:07:09.548Z,100301.52
2023-04-16T01:08:17.893Z,100303.39
2023-04-16T01:09:21.037Z,100305.44
2023-04-16T01:10:23.927Z,100299.95
2023-04-16T01:11:26.763Z,100301.54
2023-04-16T01:12:31.239Z,100300.02
2023-04-16T01:13:34.851Z,100306.69
2023-04-16T01:14:37.857Z,100301.46
2023-04-16T01:15:40.780Z,100305.89
2023-04-16T01:16:44.207Z,100299.77
2023-04-16T01:17:47.383Z,100308.33
2023-04-16T01:18:50.394Z,100303.11
2023-04-16T01:19:53.376Z,100302.07
2023-04-16T01:20:56.291Z,100299.41
2023-04-16T01:21:59.368Z,100309.52
2023-04-16T01:23:02.272Z,100307.91
2023-04-16T01:24:05.624Z,100298.69
2023-04-16T01:25:09.213Z,100303.96
2023-04-16T01:26:12.090Z,100307.64
2023-04-16T01:27:15.006Z,100309.61
2023-04-16T01:28:18.130Z,100313.52
2023-04-16T01:29:21.007Z,100309.68
2023-04-16T01:30:25.450Z,100309.52
2023-04-16T01:31:37.381Z,100313.82
2023-04-16T01:32:55.554Z,100303.77
2023-04-16T01:33:58.657Z,100303.96
2023-04-16T01:35:01.860Z,100308.94
2023-04-16T01:36:05.008Z,100303.34
2023-04-16T01:37:08.017Z,100306.08
2023-04-16T01:38:10.983Z,100303.52
2023-04-16T01:39:15.821Z,100305.55
2023-04-16T01:40:19.418Z,100308.73
2023-04-16T01:41:22.653Z,100310.30
2023-04-16T01:42:25.653Z,100310.56
2023-04-16T01:43:28.600Z,100313.77
2023-04-16T01:44:31.455Z,100308.98
2023-04-16T01:45:34.687Z,100306.72
2023-04-16T01:46:38.210Z,100313.52
2023-04-16T01:47:41.186Z,100309.14
2023-04-16T01:48:44.649Z,100307.20
2023-04-16T01:49:48.384Z,100312.37
2023-04-16T01:50:51.267Z,100314.58
2023-04-16T01:51:54.137Z,100315.35
2023-04-16T01:52:57.096Z,100313.39
2023-04-16T01:54:00.100Z,100314.41
2023-04-16T01:55:03.772Z,100315.25
2023-04-16T01:56:07.059Z,100309.96
2023-04-16T01:57:10.049Z,100309.85
2023-04-16T01:58:14.870Z,100314.48
2023-04-16T01:59:18.901Z,100317.95
2023-04-16T02:00:21.840Z,100315.29
2023-04-16T02:01:24.947Z,100314.38
2023-04-16T02:02:29.464Z,100316.81
2023-04-16T02:03:32.976Z,100322.17
2023-04-16T02:04:36.150Z,100322.67
2023-04-16T02:05:39.066Z,100321.24
2023-04-16T02:06:42.084Z,100322.45
2023-04-16T02:07:44.986Z,100322.53
2023-04-16T02:08:47.878Z,100327.72
2023-04-16T02:09:51.312Z,100325.20
2023-04-16T02:10:54.204Z,100328.33
2023-04-16T02:11:57.311Z,100329.16
2023-04-16T02:13:00.236Z,100329.88
2023-04-16T02:14:03.279Z,100332.29
2023-04-16T02:15:06.757Z,100336.34
2023-04-16T02:16:10.327Z,100329.63
2023-04-16T02:17:33.065Z,100325.66
2023-04-16T02:18:46.269Z,100326.86
2023-04-16T02:19:50.781Z,100326.75
2023-04-16T02:20:54.660Z,100330.15
2023-04-16T02:21:58.167Z,100331.41
2023-04-16T02:23:01.169Z,100337.27
2023-04-16T02:24:04.652Z,100331.42
2023-04-16T02:25:08.340Z,100335.63
2023-04-16T02:26:13.604Z,100340.23
2023-04-16T02:27:16.931Z,100342.77
2023-04-16T02:28:19.896Z,100337.14
2023-04-16T02:29:22.991Z,100335.80
2023-04-16T02:30:34.995Z,100345.52
2023-04-16T02:31:39.438Z,100342.01
2023-04-16T02:32:42.556Z,100348.60
2023-04-16T02:33:46.358Z,100350.64
2023-04-16T02:34:49.291Z,100352.48
2023-04-16T02:35:52.460Z,100352.09
2023-04-16T02:36:58.150Z,100350.98
2023-04-16T02:38:02.498Z,100352.75
2023-04-16T02:39:05.582Z,100347.81
2023-04-16T02:40:09.233Z,100355.10
2023-04-16T02:41:12.150Z,100351.90
2023-04-16T02:42:16.265Z,100354.31
2023-04-16T02:43:19.175Z,100353.53
2023-04-16T02:44:22.678Z,100352.70
2023-04-16T02:45:25.694Z,100355.66
2023-04-16T02:46:29.100Z,100355.92
2023-04-16T02:47:32.338Z,100358.06
2023-04-16T02:48:35.919Z,100357.36
2023-04-16T02:49:38.854Z,100357.88
2023-04-16T02:50:41.768Z,100354.90
2023-04-16T02:51:44.662Z,100364.84
2023-04-16T02:52:48.688Z,100367.17
2023-04-16T02:53:51.604Z,100361.36
2023-04-16T02:54:54.592Z,100366.05
2023-04-16T02:55:57.593Z,100365.46
2023-04-16T02:57:00.647Z,100364.85
2023-04-16T02:58:03.610Z,100367.70
2023-04-16T02:59:06.531Z,100364.58
2023-04-16T03:00:10.108Z,100367.44
2023-04-16T03:01:13.171Z,100367.03
2023-04-16T03:02:16.592Z,100369.65
2023-04-16T03:03:20.656Z,100368.45
2023-04-16T03:04:23.774Z,100368.02
2023-04-16T03:05:26.808Z,100377.36
2023-04-16T03:06:29.830Z,100375.08
2023-04-16T03:07:33.065Z,100373.83
2023-04-16T03:08:35.986Z,100377.11
2023-04-16T03:09:38.931Z,100373.52
2023-04-16T03:10:42.218Z,100377.80
2023-04-16T03:11:45.228Z,100380.41
2023-04-16T03:12:48.310Z,100376.25
2023-04-16T03:13:51.185Z,100374.38
2023-04-16T03:14:54.122Z,100377.33
2023-04-16T03:15:57.019Z,100377.84
2023-04-16T03:17:00.131Z,100380.81
2023-04-16T03:18:03.152Z,100369.69
2023-04-16T03:19:06.299Z,100379.56
2023-04-16T03:20:10.358Z,100377.80
2023-04-16T03:21:13.286Z,100372.30
2023-04-16T03:22:16.197Z,100375.34
2023-04-16T03:23:19.101Z,100373.77
2023-04-16T03:24:21.993Z,100372.81
2023-04-16T03:25:25.139Z,100382.11
2023-04-16T03:26:28.528Z,100374.63
2023-04-16T03:27:31.788Z,100380.86
2023-04-16T03:28:34.710Z,100377.70
2023-04-16T03:29:41.395Z,100377.09
2023-04-16T03:30:53.819Z,100381.44
2023-04-16T03:31:56.840Z,100373.77
2023-04-16T03:32:59.796Z,100377.67
2023-04-16T03:34:02.755Z,100377.25
2023-04-16T03:35:08.446Z,100381.08
2023-04-16T03:36:11.867Z,100375.38
2023-04-16T03:37:14.709Z,100378.68
2023-04-16T03:38:17.616Z,100385.82
2023-04-16T03:39:21.020Z,100381.48
2023-04-16T03:40:23.956Z,100384.36
2023-04-16T03:41:28.181Z,100383.05
2023-04-16T03:42:31.256Z,100383.05
2023-04-16T03:43:34.657Z,100380.77
2023-04-16T03:44:37.610Z,100386.58
2023-04-16T03:45:49.573Z,100383.19
2023-04-16T03:46:52.879Z,100380.15
2023-04-16T03:47:56.326Z,100386.92
2023-04-16T03:49:02.116Z,100387.59
2023-04-16T03:50:05.602Z,100386.09
2023-04-16T03:51:08.728Z,100383.92
2023-04-16T03:52:11.591Z,100389.29
2023-04-16T03:53:15.139Z,100384.77
2023-04-16T03:54:19.656Z,100383.88
2023-04-16T03:55:27.194Z,100388.77
2023-04-16T03:56:30.082Z,100392.41
2023-04-16T03:57:32.929Z,100388.65
2023-04-16T03:58:42.743Z,100395.36
2023-04-16T03:59:45.649Z,100395.08
2023-04-16T04:00:49.037Z,100392.85
2023-04-16T04:01:52.597Z,100393.77
2023-04-16T04:02:55.824Z,100391.24
2023-04-16T04:03:59.230Z,100398.89
2023-04-16T04:05:02.856Z,100395.52
2023-04-16T04:06:09.220Z,100392.86
2023-04-16T04:07:12.334Z,100393.16
2023-04-16T04:08:15.520Z,100396.54
2023-04-16T04:09:18.411Z,100397.27
2023-04-16T04:10:21.745Z,100396.79
2023-04-16T04:11:24.825Z,100402.84
2023-04-16T04:12:28.973Z,100400.77
2023-04-16T04:13:32.582Z,100398.76
2023-04-16T04:14:39.862Z,100402.81
2023-04-16T04:15:44.361Z,100409.40
2023-04-16T04:16:47.308Z,100407.52
2023-04-16T04:17:50.924Z,100409.69
2023-04-16T04:18:55.366Z,100406.45
2023-04-16T04:20:01.200Z,100409.61
2023-04-16T04:21:09.207Z,100406.15
2023-04-16T04:22:12.197Z,100409.78
2023-04-16T04:23:15.988Z,100403.43
2023-04-16T04:24:21.328Z,100409.33
2023-04-16T04:25:24.252Z,100405.66
2023-04-16T04:26:27.433Z,100408.23
2023-04-16T04:27:30.858Z,100410.02
2023-04-16T04:28:34.863Z,100415.16
2023-04-16T04:29:38.357Z,100416.48
2023-04-16T04:30:42.183Z,100410.09
2023-04-16T04:31:45.174Z,100409.33
2023-04-16T04:32:48.318Z,100407.61
2023-04-16T04:33:52.501Z,100410.49
2023-04-16T04:34:55.559Z,100412.48
2023-04-16T04:35:58.497Z,100416.00
2023-04-16T04:37:01.625Z,100417.25
2023-04-16T04:38:05.362Z,100419.14
2023-04-16T04:39:08.790Z,100419.96
2023-04-16T04:40:12.224Z,100418.39
2023-04-16T04:41:15.150Z,100428.82
2023-04-16T04:42:18.698Z,100429.63
2023-04-16T04:43:21.705Z,100427.27
2023-04-16T04:44:24.586Z,100426.49
2023-04-16T04:45:29.633Z,100427.92
2023-04-16T04:46:34.307Z,100426.00
2023-04-16T04:47:37.311Z,100432.73
2023-04-16T04:48:40.402Z,100430.76
2023-04-16T04:49:43.958Z,100434.64
2023-04-16T04:50:46.882Z,100437.09
2023-04-16T04:51:50.175Z,100432.73
2023-04-16T04:52:53.205Z,100432.77
2023-04-16T04:53:56.120Z,100437.20
2023-04-16T04:54:59.059Z,100436.15
2023-04-16T04:56:11.732Z,100438.98
2023-04-16T04:57:16.025Z,100438.77
2023-04-16T04:58:19.732Z,100441.87
2023-04-16T04:59:23.686Z,100440.78
2023-04-16T05:00:26.602Z,100442.10
2023-04-16T05:01:30.874Z,100442.39
2023-04-16T05:02:33.879Z,100445.09
2023-04-16T05:03:36.934Z,100442.00
2023-04-16T05:04:40.054Z,100441.47
2023-04-16T05:05:42.973Z,100439.70
2023-04-16T05:06:45.798Z,100439.51
2023-04-16T05:07:48.703Z,100443.73
2023-04-16T05:08:51.602Z,100442.67
2023-04-16T05:09:54.465Z,100443.27
2023-04-16T05:10:57.333Z,100444.30
2023-04-16T05:12:00.264Z,100445.71
2023-04-16T05:13:03.212Z,100442.60
2023-04-16T05:14:06.053Z,100448.14
2023-04-16T05:15:09.336Z,100450.21
2023-04-16T05:16:12.269Z,100450.52
2023-04-16T05:17:15.133Z,100448.52
2023-04-16T05:18:17.999Z,100448.17
2023-04-16T05:19:21.343Z,100449.98
2023-04-16T05:20:24.473Z,100450.19
2023-04-16T05:21:27.448Z,100452.48
2023-04-16T05:22:30.639Z,100451.84
2023-04-16T05:23:33.487Z,100453.16
2023-04-16T05:24:36.377Z,100453.16
2023-04-16T05:25:39.281Z,100458.02
2023-04-16T05:26:42.202Z,100460.37
2023-04-16T05:27:45.716Z,100456.36
2023-04-16T05:28:49.042Z,100452.34
2023-04-16T05:29:51.847Z,100455.36
2023-04-16T05:30:54.756Z,100454.09
2023-04-16T05:31:57.690Z,100451.58
2023-04-16T05:33:00.791Z,100455.05
2023-04-16T05:34:03.769Z,100457.06
2023-04-16T05:35:07.068Z,100456.08
2023-04-16T05:36:10.045Z,100455.25
2023-04-16T05:37:12.865Z,100454.30
2023-04-16T05:38:15.702Z,100452.90
2023-04-16T05:39:19.827Z,100461.60
2023-04-16T05:40:22.753Z,100456.38
2023-04-16T05:41:26.011Z,100458.10
2023-04-16T05:42:29.373Z,100458.58
2023-04-16T05:43:32.564Z,100463.73
2023-04-16T05:44:35.404Z,100465.48
2023-04-16T05:45:41.302Z,100460.02
2023-04-16T05:46:44.247Z,100465.58
2023-04-16T05:47:47.227Z,100462.41
2023-04-16T05:48:50.411Z,100468.86
2023-04-16T05:49:53.277Z,100469.42
2023-04-16T05:50:56.149Z,100461.17
2023-04-16T05:51:59.925Z,100466.21
2023-04-16T05:53:05.836Z,100475.41
2023-04-16T05:54:09.322Z,100467.62
2023-04-16T05:55:12.504Z,100468.83
2023-04-16T05:56:15.428Z,100473.10
2023-04-16T05:57:18.347Z,100472.61
2023-04-16T05:58:21.193Z,100476.52
2023-04-16T05:59:24.044Z,100475.64
2023-04-16T06:00:28.225Z,100476.20
2023-04-16T06:01:34.239Z,100479.66
2023-04-16T06:02:37.518Z,100479.19
2023-04-16T06:03:40.798Z,100480.81
2023-04-16T06:04:44.191Z,100480.33
2023-04-16T06:05:47.164Z,100481.48
2023-04-16T06:06:50.582Z,100479.32
2023-04-16T06:07:53.566Z,100479.42
2023-04-16T06:08:56.529Z,100485.00
2023-04-16T06:09:59.402Z,100485.33
2023-04-16T06:11:02.333Z,100477.89
2023-04-16T06:12:05.696Z,100486.39
2023-04-16T06:13:08.621Z,100484.10
2023-04-16T06:14:11.524Z,100490.60
2023-04-16T06:15:14.476Z,100483.44
2023-04-16T06:16:17.390Z,100482.52
2023-04-16T06:17:20.320Z,100483.77
2023-04-16T06:18:23.649Z,100491.08
2023-04-16T06:19:27.004Z,100494.14
2023-04-16T06:20:30.339Z,100491.28
2023-04-16T06:21:33.628Z,100491.15
2023-04-16T06:22:36.620Z,100492.91
2023-04-16T06:23:39.514Z,100502.08
2023-04-16T06:24:42.451Z,100501.30
2023-04-16T06:25:45.930Z,100504.21
2023-04-16T06:26:48.747Z,100501.09
2023-04-16T06:27:51.982Z,100507.84
2023-04-16T06:28:54.877Z,100505.63
2023-04-16T06:29:58.420Z,100510.59
2023-04-16T06:31:01.838Z,100510.64
2023-04-16T06:32:05.204Z,100507.46
2023-04-16T06:33:09.269Z,100510.38
2023-04-16T06:34:12.110Z,100509.40
2023-04-16T06:35:15.078Z,100515.65
2023-04-16T06:36:18.065Z,100508.58
2023-04-16T06:37:21.071Z,100507.96
2023-04-16T06:38:24.014Z,100504.70
2023-04-16T06:39:26.873Z,100501.34
2023-04-16T06:40:29.790Z,100504.91
2023-04-16T06:41:32.685Z,100500.08
2023-04-16T06:42:35.602Z,100499.92
2023-04-16T06:43:39.040Z,100499.04
2023-04-16T06:44:42.096Z,100501.78
2023-04-16T06:45:44.932Z,100505.85
2023-04-16T06:46:47.896Z,100505.73
2023-04-16T06:47:52.432Z,100507.42
2023-04-16T06:48:55.382Z,100505.80
2023-04-16T06:49:58.210Z,100502.20
2023-04-16T06:51:01.570Z,100501.61
2023-04-16T06:52:05.782Z,100502.95
2023-04-16T06:53:09.200Z,100503.49
2023-04-16T06:54:12.159Z,100505.70
2023-04-16T06:55:15.195Z,100511.78
2023-04-16T06:56:18.082Z,100509.17
2023-04-16T06:57:21.054Z,100507.16
2023-04-16T06:58:23.927Z,100509.04
2023-04-16T06:59:26.799Z,100506.69
2023-04-16T07:00:29.692Z,100511.22
2023-04-16T07:01:32.685Z,100510.06
2023-04-16T07:02:36.044Z,100512.42
2023-04-16T07:03:39.335Z,100518.08
2023-04-16T07:04:42.353Z,100512.55
2023-04-16T07:05:45.182Z,100511.79
2023-04-16T07:06:48.110Z,100511.17
2023-04-16T07:07:51.114Z,100511.69
2023-04-16T07:08:54.008Z,100515.20
2023-04-16T07:09:57.052Z,100521.59
2023-04-16T07:11:00.083Z,100520.27
2023-04-16T07:12:03.043Z,100525.30
2023-04-16T07:13:06.243Z,100530.13
2023-04-16T07:14:09.128Z,100526.33
2023-04-16T07:15:12.226Z,100529.06
2023-04-16T07:16:15.120Z,100522.65
2023-04-16T07:17:17.983Z,100528.29
2023-04-16T07:18:21.525Z,100532.11
2023-04-16T07:19:44.044Z,100527.86
2023-04-16T07:21:11.993Z,100534.77
2023-04-16T07:22:14.889Z,100537.77
2023-04-16T07:23:17.747Z,100536.09
2023-04-16T07:24:20.835Z,100541.35
2023-04-16T07:25:23.744Z,100539.67
2023-04-16T07:26:26.796Z,100542.55
2023-04-16T07:27:29.631Z,100540.98
2023-04-16T07:28:32.820Z,100541.83
2023-04-16T07:29:35.677Z,100543.74
2023-04-16T07:30:38.682Z,100543.39
2023-04-16T07:31:41.633Z,100547.18
2023-04-16T07:32:44.626Z,100549.26
2023-04-16T07:33:47.879Z,100550.00
2023-04-16T07:34:50.732Z,100554.96
2023-04-16T07:35:53.656Z,100553.42
2023-04-16T07:36:56.982Z,100553.37
2023-04-16T07:37:59.945Z,100556.08
2023-04-16T07:39:03.003Z,100556.60
2023-04-16T07:40:07.016Z,100553.04
2023-04-16T07:41:10.076Z,100548.10
2023-04-16T07:42:12.972Z,100553.46
2023-04-16T07:43:16.529Z,100550.32
2023-04-16T07:44:19.424Z,100548.98
2023-04-16T07:45:22.304Z,100544.74
2023-04-16T07:46:30.480Z,100546.85
2023-04-16T07:47:39.148Z,100544.33
2023-04-16T07:48:43.074Z,100546.33
2023-04-16T07:49:45.985Z,100547.85
2023-04-16T07:50:50.201Z,100555.61
2023-04-16T07:51:53.075Z,100552.16
2023-04-16T07:52:55.943Z,100555.77
2023-04-16T07:53:58.780Z,100558.28
2023-04-16T07:55:01.681Z,100564.40
2023-04-16T07:56:04.905Z,100565.31
2023-04-16T07:57:07.758Z,100566.33
2023-04-16T07:58:10.821Z,100569.11
2023-04-16T07:59:21.825Z,100567.56
2023-04-16T08:00:26.574Z,100565.73
2023-04-16T08:01:29.824Z,100568.61
2023-04-16T08:02:33.213Z,100574.14
2023-04-16T08:03:36.670Z,100574.02
2023-04-16T08:04:41.302Z,100582.95
2023-04-16T08:05:44.260Z,100581.88
2023-04-16T08:06:47.122Z,100582.56
2023-04-16T08:07:49.985Z,100582.37
2023-04-16T08:08:52.819Z,100584.82
2023-04-16T08:09:55.806Z,100584.80
2023-04-16T08:10:59.163Z,100584.20
2023-04-16T08:12:02.847Z,100590.80
2023-04-16T08:13:05.963Z,100584.95
2023-04-16T08:14:08.961Z,100589.45
2023-04-16T08:15:12.001Z,100582.91
2023-04-16T08:16:14.883Z,100589.77
2023-04-16T08:17:17.929Z,100589.14
2023-04-16T08:18:20.822Z,100589.48
2023-04-16T08:19:23.777Z,100586.27
2023-04-16T08:20:26.940Z,100583.18
2023-04-16T08:21:30.816Z,100582.39
2023-04-16T08:22:33.859Z,100591.25
2023-04-16T08:23:36.793Z,100597.02
2023-04-16T08:24:40.241Z,100586.83
2023-04-16T08:25:43.119Z,100589.53
2023-04-16T08:26:45.941Z,100588.85
2023-04-16T08:27:48.850Z,100590.63
2023-04-16T08:28:51.738Z,100586.27
2023-04-16T08:29:54.685Z,100586.26
2023-04-16T08:30:57.689Z,100584.74
2023-04-16T08:32:00.732Z,100580.96
2023-04-16T08:33:03.766Z,100581.86
2023-04-16T08:34:06.844Z,100585.09
2023-04-16T08:35:10.215Z,100585.98
2023-04-16T08:36:13.229Z,100591.49
2023-04-16T08:37:45.313Z,100592.16
2023-04-16T08:38:48.363Z,100590.23
2023-04-16T08:39:51.199Z,100592.23
2023-04-16T08:40:56.887Z,100592.58
2023-04-16T08:42:04.723Z,100593.98
2023-04-16T08:43:13.909Z,100597.95
2023-04-16T08:44:33.859Z,100588.11
2023-04-16T08:45:37.501Z,100585.67
2023-04-16T08:46:41.556Z,100590.69
2023-04-16T08:47:49.449Z,100596.95
2023-04-16T08:48:56.101Z,100594.61
2023-04-16T08:49:59.915Z,100595.27
2023-04-16T08:51:03.315Z,100606.52
2023-04-16T08:52:10.153Z,100606.02
2023-04-16T08:53:18.636Z,100597.80
2023-04-16T08:54:39.061Z,100599.17
2023-04-16T08:55:52.570Z,100598.91
2023-04-16T08:56:57.820Z,100599.86
2023-04-16T08:58:04.195Z,100600.95
2023-04-16T08:59:07.579Z,100609.50
2023-04-16T09:00:11.778Z,100603.07
2023-04-16T09:01:15.177Z,100603.41
2023-04-16T09:02:18.467Z,100607.21
2023-04-16T09:03:22.286Z,100610.52
2023-04-16T09:04:29.230Z,100608.89
2023-04-16T09:05:33.694Z,100608.02
2023-04-16T09:06:37.280Z,100612.00
2023-04-16T09:07:42.045Z,100615.80
2023-04-16T09:08:46.540Z,100614.45
2023-04-16T09:09:52.060Z,100612.98
2023-04-16T09:10:56.684Z,100605.14
2023-04-16T09:12:03.267Z,100600.46
2023-04-16T09:13:06.261Z,100600.26
2023-04-16T09:14:11.322Z,100614.66
2023-04-16T09:15:14.329Z,100603.89
2023-04-16T09:16:17.397Z,100609.88
2023-04-16T09:17:20.349Z,100609.63
2023-04-16T09:18:24.151Z,100611.13
2023-04-16T09:19:27.583Z,100614.05
2023-04-16T09:20:30.456Z,100615.41
2023-04-16T09:21:33.313Z,100615.31
2023-04-16T09:22:37.417Z,100614.31
2023-04-16T09:23:41.207Z,100622.67
2023-04-16T09:24:44.127Z,100613.23
2023-04-16T09:25:47.122Z,100617.49
2023-04-16T09:26:52.703Z,100625.06
2023-04-16T09:27:55.655Z,100615.33
2023-04-16T09:28:58.531Z,100622.88
2023-04-16T09:30:01.757Z,100621.94
2023-04-16T09:31:15.287Z,100629.29
2023-04-16T09:32:25.034Z,100627.49
2023-04-16T09:33:27.884Z,100624.93
2023-04-16T09:34:33.723Z,100629.88
2023-04-16T09:35:46.844Z,100626.61
2023-04-16T09:36:49.716Z,100627.11
2023-04-16T09:37:57.719Z,100636.12
2023-04-16T09:39:01.502Z,100630.55
2023-04-16T09:40:05.082Z,100643.52
2023-04-16T09:41:08.870Z,100640.85
2023-04-16T09:42:12.405Z,100635.48
2023-04-16T09:43:18.119Z,100639.91
2023-04-16T09:44:21.111Z,100648.73
2023-04-16T09:45:24.563Z,100640.75
2023-04-16T09:46:43.237Z,100647.20
2023-04-16T09:47:46.428Z,100641.27
2023-04-16T09:48:49.444Z,100649.16
2023-04-16T09:49:52.692Z,100644.33
2023-04-16T09:50:55.748Z,100645.52
2023-04-16T09:52:00.150Z,100648.95
2023-04-16T09:53:03.904Z,100645.52
2023-04-16T09:54:07.438Z,100648.77
2023-04-16T09:55:10.371Z,100652.45
2023-04-16T09:56:13.974Z,100652.11
2023-04-16T09:57:24.495Z,100648.18
2023-04-16T09:58:28.628Z,100650.64
2023-04-16T09:59:34.056Z,100652.60
2023-04-16T10:00:43.621Z,100652.77
2023-04-16T10:01:47.219Z,100659.60
2023-04-16T10:02:50.813Z,100661.84
2023-04-16T10:03:56.301Z,100658.66
2023-04-16T10:05:01.951Z,100654.31
2023-04-16T10:06:14.711Z,100651.44
2023-04-16T10:07:18.353Z,100652.93
2023-04-16T10:08:21.431Z,100653.86
2023-04-16T10:09:24.307Z,100654.41
2023-04-16T10:10:27.254Z,100655.00
2023-04-16T10:11:30.910Z,100656.78
2023-04-16T10:12:34.224Z,100655.00
2023-04-16T10:13:37.133Z,100656.88
2023-04-16T10:14:40.923Z,100658.15
2023-04-16T10:15:43.948Z,100656.42
2023-04-16T10:16:47.802Z,100654.55
2023-04-16T10:17:51.544Z,100654.86
2023-04-16T10:18:54.575Z,100654.81
2023-04-16T10:19:58.537Z,100654.79
2023-04-16T10:21:02.469Z,100655.38
2023-04-16T10:22:05.801Z,100660.14
2023-04-16T10:23:09.254Z,100662.71
2023-04-16T10:24:12.932Z,100665.19
2023-04-16T10:25:18.006Z,100667.70
2023-04-16T10:26:21.760Z,100663.11
2023-04-16T10:27:26.735Z,100663.61
2023-04-16T10:28:30.738Z,100668.09
2023-04-16T10:29:38.540Z,100662.46
2023-04-16T10:30:48.307Z,100664.21
2023-04-16T10:31:52.772Z,100670.31
2023-04-16T10:32:58.952Z,100670.34
2023-04-16T10:34:04.263Z,100673.21
2023-04-16T10:35:07.601Z,100671.39
2023-04-16T10:36:15.275Z,100669.68
2023-04-16T10:37:18.681Z,100673.50
2023-04-16T10:38:27.018Z,100671.72
2023-04-16T10:39:30.042Z,100669.84
2023-04-16T10:40:32.949Z,100671.91
2023-04-16T10:41:37.471Z,100670.50
2023-04-16T10:42:40.388Z,100673.61
2023-04-16T10:43:45.069Z,100672.39
2023-04-16T10:44:48.042Z,100675.91
2023-04-16T10:45:51.097Z,100670.95
2023-04-16T10:46:54.947Z,100670.55
2023-04-16T10:47:58.756Z,100668.70
2023-04-16T10:49:04.242Z,100670.23
2023-04-16T10:50:17.074Z,100670.50
2023-04-16T10:51:34.055Z,100669.20
2023-04-16T10:52:36.978Z,100673.05
2023-04-16T10:53:39.901Z,100675.91
2023-04-16T10:54:43.323Z,100675.93
2023-04-16T10:56:07.312Z,100675.55
2023-04-16T10:57:15.152Z,100671.30
2023-04-16T10:58:27.953Z,100676.58
2023-04-16T10:59:33.494Z,100675.21
2023-04-16T11:00:52.374Z,100677.89
2023-04-16T11:01:56.966Z,100676.41
2023-04-16T11:03:02.292Z,100678.02
2023-04-16T11:04:20.402Z,100682.36
2023-04-16T11:05:24.572Z,100678.88
2023-04-16T11:06:28.796Z,100678.94
2023-04-16T11:07:34.194Z,100681.23
2023-04-16T11:08:51.131Z,100678.36
2023-04-16T11:10:04.971Z,100678.91
2023-04-16T11:11:11.120Z,100679.46
2023-04-16T11:12:17.059Z,100686.76
2023-04-16T11:13:21.834Z,100690.50
2023-04-16T11:14:28.527Z,100691.31
2023-04-16T11:15:33.536Z,100696.48
2023-04-16T11:16:41.262Z,100697.52
2023-04-16T11:17:50.851Z,100687.91
2023-04-16T11:18:55.053Z,100693.10
2023-04-16T11:19:59.692Z,100691.65
2023-04-16T11:21:02.768Z,100689.15
2023-04-16T11:22:05.803Z,100691.40
2023-04-16T11:23:13.268Z,100689.64
2023-04-16T11:24:16.309Z,100692.50
2023-04-16T11:25:27.826Z,100694.86
2023-04-16T11:26:31.016Z,100691.55
2023-04-16T11:27:33.952Z,100692.62
2023-04-16T11:28:37.330Z,100690.48
2023-04-16T11:29:40.436Z,100693.84
2023-04-16T11:30:43.378Z,100693.23
2023-04-16T11:31:53.798Z,100693.77
2023-04-16T11:32:56.905Z,100690.36
2023-04-16T11:34:01.044Z,100695.20
2023-04-16T11:35:12.806Z,100694.71
2023-04-16T11:36:15.825Z,100694.70
2023-04-16T11:37:33.201Z,100695.80
2023-04-16T11:38:37.647Z,100696.71
2023-04-16T11:39:53.267Z,100694.98
2023-04-16T11:40:56.271Z,100695.52
2023-04-16T11:41:59.138Z,100695.90
2023-04-16T11:43:04.107Z,100694.48
2023-04-16T11:44:24.848Z,100695.20
2023-04-16T11:45:27.725Z,100695.23
2023-04-16T11:46:40.759Z,100697.80
2023-04-16T11:47:47.709Z,100693.18
2023-04-16T11:48:53.091Z,100695.25
2023-04-16T11:49:56.334Z,100694.11
2023-04-16T11:50:59.278Z,100690.31
2023-04-16T11:52:02.190Z,100692.79
2023-04-16T11:53:06.454Z,100691.35
2023-04-16T11:54:12.088Z,100689.00
2023-04-16T11:55:15.602Z,100689.14
2023-04-16T11:56:31.004Z,100688.01
2023-04-16T11:57:33.905Z,100683.70
2023-04-16T11:58:37.486Z,100688.81
2023-04-16T12:00:01.404Z,100685.52
2023-04-16T12:01:21.089Z,100681.96
2023-04-16T12:02:35.725Z,100685.00
2023-04-16T12:03:43.528Z,100677.31
2023-04-16T12:04:46.894Z,100681.77
2023-04-16T12:05:49.816Z,100690.09
2023-04-16T12:07:04.487Z,100686.36
2023-04-16T12:08:11.769Z,100680.67
2023-04-16T12:09:27.366Z,100678.38
2023-04-16T12:10:34.960Z,100681.63
2023-04-16T12:11:42.252Z,100681.30
2023-04-16T12:12:45.180Z,100677.33
2023-04-16T12:14:07.945Z,100687.00
2023-04-16T12:15:11.640Z,100695.71